Monday, December 18, 2017, 7:51 AM EST
Back to Local

KBOS, Boston Logan International

Location: Boston, MA, United States Lat: 42.367
Local Time: 7:51 AM EST (12:51 GMT) Lon: -71.017
Time Zone: US/Eastern Elev: 19 ft

Show me the last for .
Show Decoded

2017-12-18 06:54 METAR KBOS 181154Z 02003KT 10SM OVC029 M04/M13 A3020 RMK AO2 SLP224 T10391128
                 11039 21056 56010 =
2017-12-18 05:54 METAR KBOS 181054Z 36003KT 10SM OVC055 M04/M14 A3020 RMK AO2 SLP225 T10441139 =
2017-12-18 04:54 METAR KBOS 180954Z 36003KT 10SM BKN060 OVC070 M05/M14 A3020 RMK AO2 SLP226
                 T10501144 =
2017-12-18 03:54 METAR KBOS 180854Z 01004KT 10SM FEW060 OVC080 M05/M14 A3023 RMK AO2 SLP234
                 T10501144 58006 =
2017-12-18 02:54 METAR KBOS 180754Z 01004KT 10SM FEW090 BKN150 OVC220 M06/M14 A3025 RMK AO2
                 SLP241 T10561144 =
2017-12-18 01:54 METAR KBOS 180654Z 01006KT 10SM BKN150 OVC220 M06/M14 A3025 RMK AO2 SLP243
                 T10561144 =
2017-12-18 00:54 METAR KBOS 180554Z 01004KT 10SM SCT150 OVC220 M06/M14 A3024 RMK AO2 SLP240
                 T10561139 11028 21056 56010 =
2017-12-17 23:54 METAR KBOS 180454Z 35003KT 10SM SCT150 OVC220 M05/M14 A3025 RMK AO2 SLP243
                 T10501139 410061067 =
2017-12-17 22:54 METAR KBOS 180354Z 01005KT 10SM SCT150 OVC220 M04/M14 A3026 RMK AO2 SLP245
                 T10441144 =
2017-12-17 21:54 METAR KBOS 180254Z 36007KT 10SM BKN150 OVC200 M04/M15 A3027 RMK AO2 SLP250
                 T10391150 50000 =
2017-12-17 20:54 METAR KBOS 180154Z 36005KT 10SM FEW140 BKN150 OVC200 M03/M15 A3029 RMK AO2
                 SLP256 T10331150 =
2017-12-17 19:54 METAR KBOS 180054Z 35006KT 10SM BKN150 OVC200 M03/M16 A3029 RMK AO2 SLP255
                 T10331161 =
2017-12-17 18:54 METAR KBOS 172354Z 34005KT 10SM BKN140 OVC150 M03/M17 A3027 RMK AO2 SLP250
                 T10281167 11006 21028 53009 =
2017-12-17 17:54 METAR KBOS 172254Z 32007KT 10SM SCT140 OVC150 M02/M16 3026 RMK AO2 SLP245
                 T10221161 =
2017-12-17 16:54 METAR KBOS 172154Z 32008KT 300V010 10SM SCT140 BKN150 OVC220 M02/M17 A3025 RMK
                 AO2 SLP244 T10171167 =
2017-12-17 15:54 METAR KBOS 172054Z 27008KT 10SM FEW150 BKN180 OVC220 M02/M16 A3024 RMK AO2
                 SLP240 T10171161 53005 =
2017-12-17 14:54 METAR KBOS 171954Z 33007KT 10SM OVC180 M02/M17 A3021 RMK AO2 SLP229 T10171167 =
2017-12-17 13:54 METAR KBOS 171854Z 30008KT 10SM FEW030 SCT250 M01/M17 A3022 RMK AO2 SLP233
                 T10111172 =
2017-12-17 12:54 METAR KBOS 171754Z 33008KT 10SM FEW030 SCT250 M02/M17 A3023 RMK AO2 SLP235
                 T10171167 11017 21067 58019 =
2017-12-17 11:54 METAR KBOS 171654Z 32010KT 10SM FEW030 FEW250 M02/M17 A3025 RMK AO2 SLP243
                 T10221167 =
2017-12-17 10:54 METAR KBOS 171554Z 32012KT 10SM FEW030 FEW250 M04/M16 A3027 RMK AO2 SLP249
                 T10391156 =
2017-12-17 09:54 METAR KBOS 171454Z 30011KT 10SM FEW030 FEW250 M04/M16 A3028 RMK AO2 SLP254
                 T10441156 53006 =
2017-12-17 08:54 METAR KBOS 171354Z 29010KT 10SM FEW030 FEW250 M06/M14 A3028 RMK AO2 SLP253
                 T10561144 =
2017-12-17 07:54 METAR KBOS 171254Z 29007KT 10SM FEW030 FEW120 M07/M14 A3027 RMK AO2 SLP249
                 T10671144 =

Support USWX by starting your Amazon purchase here.